Time;durP1;ratioP1;P1;durP2;ratioP2;P2;SDS_P1;SDS_P2;PMS_P1;PMS_P2;Temp;Humidity;BMP_temperature;BMP_pressure;BME280_temperature;BME280_humidity;BME280_pressure;Samples;Min_cycle;Max_cycle;Signal;HPM_P1;HPM_P2
2023/04/24 00:02:20;;;;;;;;;;;12.80;99.90;;;;;;4987596;28;20483;-75
2023/04/24 00:04:47;;;;;;;;;;;12.80;99.90;;;;;;4989044;28;19957;-75
2023/04/24 00:07:14;;;;;;;;;;;12.80;99.90;;;;;;4997936;28;19965;-75
2023/04/24 00:09:40;;;;;;;;;;;12.80;99.90;;;;;;4996063;28;19984;-74
2023/04/24 00:12:07;;;;;;;;;;;12.80;99.90;;;;;;5002586;28;20316;-74
2023/04/24 00:14:35;;;;;;;;;;;12.80;99.90;;;;;;4997042;28;19930;-75
2023/04/24 00:17:03;;;;;;;;;;;12.80;99.90;;;;;;4995184;28;19932;-74
2023/04/24 00:19:30;;;;;;;;;;;12.70;99.90;;;;;;5003139;28;19953;-74
2023/04/24 00:21:57;;;;;;;;;;;12.70;99.90;;;;;;5001855;28;20012;-75
2023/04/24 00:24:24;;;;;;;;;;;12.70;99.90;;;;;;5000214;28;20016;-75
2023/04/24 00:26:50;;;;;;;;;;;12.60;99.90;;;;;;4998659;28;20212;-74
2023/04/24 00:29:17;;;;;;;;;;;12.60;99.90;;;;;;5002731;28;19926;-74
2023/04/24 00:31:44;;;;;;;;;;;12.60;99.90;;;;;;5004496;28;19925;-75
2023/04/24 00:34:12;;;;;;;;;;;12.60;99.90;;;;;;4998271;28;19929;-75
2023/04/24 00:36:39;;;;;;;;;;;12.60;99.90;;;;;;4989649;28;20442;-75
2023/04/24 00:39:08;;;;;;;;;;;12.60;99.90;;;;;;5000550;28;19926;-75
2023/04/24 00:41:35;;;;;;;;;;;12.60;99.90;;;;;;5002845;28;19929;-74
2023/04/24 00:44:02;;;;;;;;;;;12.50;99.90;;;;;;4998980;28;20104;-75
2023/04/24 00:46:29;;;;;;;;;;;12.50;99.90;;;;;;4986648;28;19933;-74
2023/04/24 00:48:57;;;;;;;;;;;12.50;99.90;;;;;;5000578;28;19925;-74
2023/04/24 00:51:25;;;;;;;;;;;12.50;99.90;;;;;;4998023;28;20381;-74
2023/04/24 00:53:52;;;;;;;;;;;12.50;99.90;;;;;;4981592;28;19929;-74
2023/04/24 00:56:19;;;;;;;;;;;12.50;99.90;;;;;;4984586;28;19929;-75
2023/04/24 00:58:46;;;;;;;;;;;12.50;99.90;;;;;;4992174;28;19933;-74
2023/04/24 01:01:14;;;;;;;;;;;12.50;99.90;;;;;;4996695;28;21403;-75
2023/04/24 01:03:40;;;;;;;;;;;12.40;99.90;;;;;;4995631;28;19937;-75
2023/04/24 01:06:08;;;;;;;;;;;12.40;99.90;;;;;;4995109;28;19925;-75
2023/04/24 01:08:36;;;;;;;;;;;12.40;99.90;;;;;;4994465;28;19981;-74
2023/04/24 01:11:04;;;;;;;;;;;12.40;99.90;;;;;;4995328;28;20021;-75
2023/04/24 01:13:32;;;;;;;;;;;12.40;99.90;;;;;;4989414;28;19979;-75
2023/04/24 01:15:59;;;;;;;;;;;12.40;99.90;;;;;;4998373;28;19976;-75
2023/04/24 01:18:28;;;;;;;;;;;12.30;99.90;;;;;;4998255;28;20015;-75
2023/04/24 01:20:57;;;;;;;;;;;12.30;99.90;;;;;;4977335;28;19944;-74
2023/04/24 01:23:26;;;;;;;;;;;12.30;99.90;;;;;;4996072;28;19925;-74
2023/04/24 01:25:53;;;;;;;;;;;;;;;;;;4983460;28;19925;-75
2023/04/24 01:28:20;;;;;;;;;;;12.30;99.90;;;;;;4978631;28;20315;-75
2023/04/24 01:30:47;;;;;;;;;;;12.20;99.90;;;;;;4997753;28;19933;-75
2023/04/24 01:33:14;;;;;;;;;;;12.30;99.90;;;;;;4983986;28;19965;-74
2023/04/24 01:35:41;;;;;;;;;;;12.20;99.90;;;;;;4997906;28;20011;-75
2023/04/24 01:38:07;;;;;;;;;;;12.20;99.90;;;;;;5001467;28;20290;-75
2023/04/24 01:40:37;;;;;;;;;;;12.20;99.90;;;;;;4998617;28;19933;-74
2023/04/24 01:43:04;;;;;;;;;;;12.20;99.90;;;;;;4996863;28;19980;-74
2023/04/24 01:45:31;;;;;;;;;;;12.20;99.90;;;;;;4996463;28;19980;-75
2023/04/24 01:47:58;;;;;;;;;;;12.20;99.90;;;;;;4992011;28;20020;-75
2023/04/24 01:50:25;;;;;;;;;;;12.10;99.90;;;;;;4984746;28;20016;-75
2023/04/24 01:52:51;;;;;;;;;;;12.20;99.90;;;;;;4997438;28;19969;-75
2023/04/24 01:55:18;;;;;;;;;;;12.20;99.90;;;;;;4996635;28;19926;-74
2023/04/24 01:57:47;;;;;;;;;;;12.10;99.90;;;;;;4992812;28;19926;-75
2023/04/24 02:00:14;;;;;;;;;;;12.10;99.90;;;;;;5002007;28;19926;-75
2023/04/24 02:02:41;;;;;;;;;;;12.00;99.90;;;;;;4997119;28;19929;-74
2023/04/24 02:05:08;;;;;;;;;;;12.10;99.90;;;;;;4996805;28;20028;-75
2023/04/24 02:07:36;;;;;;;;;;;12.00;99.90;;;;;;4997104;28;20032;-73
2023/04/24 02:10:04;;;;;;;;;;;12.00;99.90;;;;;;4995379;28;19981;-74
2023/04/24 02:12:32;;;;;;;;;;;12.00;99.90;;;;;;4998895;28;19929;-74
2023/04/24 02:15:00;;;;;;;;;;;12.00;99.90;;;;;;4982858;28;20391;-75
2023/04/24 02:17:27;;;;;;;;;;;12.00;99.90;;;;;;4993025;28;20489;-74
2023/04/24 02:19:54;;;;;;;;;;;12.00;99.90;;;;;;5000980;28;19926;-74
2023/04/24 02:22:21;;;;;;;;;;;12.00;99.90;;;;;;4984726;28;20489;-75
2023/04/24 02:24:47;;;;;;;;;;;12.00;99.90;;;;;;4984316;28;19964;-74
2023/04/24 02:27:16;;;;;;;;;;;11.90;99.90;;;;;;4993186;28;19926;-75
2023/04/24 02:29:42;;;;;;;;;;;11.90;99.90;;;;;;5003360;28;19933;-75
2023/04/24 02:32:12;;;;;;;;;;;11.90;99.90;;;;;;4984807;28;20476;-75
2023/04/24 02:34:38;;;;;;;;;;;11.90;99.90;;;;;;4996404;28;19932;-75
2023/04/24 02:37:05;;;;;;;;;;;11.90;99.90;;;;;;4989181;28;19925;-75
2023/04/24 02:39:32;;;;;;;;;;;11.90;99.90;;;;;;5005302;28;19932;-75
2023/04/24 02:41:59;;;;;;;;;;;11.90;99.90;;;;;;5002784;28;19925;-75
2023/04/24 02:44:26;;;;;;;;;;;11.90;99.90;;;;;;5000146;28;19961;-74
2023/04/24 02:46:53;;;;;;;;;;;11.90;99.90;;;;;;5008203;28;21270;-73
2023/04/24 02:49:21;;;;;;;;;;;11.80;99.90;;;;;;5005620;28;19964;-74
2023/04/24 02:51:48;;;;;;;;;;;11.80;99.90;;;;;;4998605;28;19952;-76
2023/04/24 02:54:15;;;;;;;;;;;11.80;99.90;;;;;;4985096;28;20036;-76
2023/04/24 02:56:44;;;;;;;;;;;11.80;99.90;;;;;;5004555;28;20011;-74
2023/04/24 02:59:11;;;;;;;;;;;11.80;99.90;;;;;;5006468;28;20012;-74
2023/04/24 03:01:38;;;;;;;;;;;11.80;99.90;;;;;;4996917;28;19925;-74
2023/04/24 03:04:04;;;;;;;;;;;11.80;99.90;;;;;;4997800;28;19930;-74
2023/04/24 03:06:35;;;;;;;;;;;11.70;99.90;;;;;;5001615;28;19935;-74
2023/04/24 03:09:02;;;;;;;;;;;11.70;99.90;;;;;;5002288;28;19975;-74
2023/04/24 03:11:28;;;;;;;;;;;11.70;99.90;;;;;;4985046;28;20474;-73
2023/04/24 03:13:55;;;;;;;;;;;11.70;99.90;;;;;;4987213;28;19948;-73
2023/04/24 03:16:22;;;;;;;;;;;11.70;99.90;;;;;;4985407;28;19971;-74
2023/04/24 03:18:49;;;;;;;;;;;11.70;99.90;;;;;;5001562;28;20003;-74
2023/04/24 03:21:16;;;;;;;;;;;11.70;99.90;;;;;;4995595;28;19952;-74
2023/04/24 03:23:45;;;;;;;;;;;11.60;99.90;;;;;;5006867;28;20546;-74
2023/04/24 03:26:12;;;;;;;;;;;11.70;99.90;;;;;;4996681;28;20024;-77
2023/04/24 03:28:46;;;;;;;;;;;11.70;99.90;;;;;;4998548;28;19926;-74
2023/04/24 03:31:13;;;;;;;;;;;11.60;99.90;;;;;;4984266;28;19937;-74
2023/04/24 03:33:40;;;;;;;;;;;11.60;99.90;;;;;;5002960;28;19930;-74
2023/04/24 03:36:08;;;;;;;;;;;11.60;99.90;;;;;;4994564;28;19961;-74
2023/04/24 03:38:45;;;;;;;;;;;11.60;99.90;;;;;;4999125;28;20013;-74
2023/04/24 03:41:27;;;;;;;;;;;11.60;99.90;;;;;;4999418;28;19936;-74
2023/04/24 03:43:58;;;;;;;;;;;11.60;99.90;;;;;;4982843;28;19929;-74
2023/04/24 03:46:25;;;;;;;;;;;11.50;99.90;;;;;;4980893;28;20028;-74
2023/04/24 03:48:57;;;;;;;;;;;11.50;99.90;;;;;;4994487;28;19960;-74
2023/04/24 03:51:30;;;;;;;;;;;11.50;99.90;;;;;;4985302;28;20359;-74
2023/04/24 03:54:04;;;;;;;;;;;11.50;99.90;;;;;;4979748;28;20024;-77
2023/04/24 03:56:33;;;;;;;;;;;11.50;99.90;;;;;;4972694;28;19970;-73
2023/04/24 03:59:00;;;;;;;;;;;11.50;99.90;;;;;;4977857;28;19933;-74
2023/04/24 04:01:28;;;;;;;;;;;11.50;99.90;;;;;;4998593;28;19933;-74
2023/04/24 04:04:02;;;;;;;;;;;11.50;99.90;;;;;;4985512;28;19957;-74
2023/04/24 04:06:30;;;;;;;;;;;11.50;99.90;;;;;;4996687;28;20016;-74
2023/04/24 04:08:59;;;;;;;;;;;11.40;99.90;;;;;;4985222;28;19929;-74
2023/04/24 04:11:27;;;;;;;;;;;11.40;99.90;;;;;;5005445;28;20446;-74
2023/04/24 04:13:54;;;;;;;;;;;11.40;99.90;;;;;;5005243;28;19933;-74
2023/04/24 04:16:22;;;;;;;;;;;11.40;99.90;;;;;;4986905;28;19925;-74
2023/04/24 04:18:52;;;;;;;;;;;11.40;99.90;;;;;;4997348;28;19941;-74
2023/04/24 04:21:19;;;;;;;;;;;11.40;99.90;;;;;;4986173;28;19933;-74
2023/04/24 04:23:46;;;;;;;;;;;11.40;99.90;;;;;;5001384;28;20423;-75
2023/04/24 04:26:20;;;;;;;;;;;11.40;99.90;;;;;;4985604;28;19926;-74
2023/04/24 04:29:06;;;;;;;;;;;11.40;99.90;;;;;;5003600;28;20387;-73
2023/04/24 04:31:36;;;;;;;;;;;11.40;99.90;;;;;;5002604;28;19941;-74
2023/04/24 04:34:08;;;;;;;;;;;11.30;99.90;;;;;;4998509;28;20027;-74
2023/04/24 04:36:39;;;;;;;;;;;11.30;99.90;;;;;;5001073;28;19941;-74
2023/04/24 04:39:25;;;;;;;;;;;11.30;99.90;;;;;;5004433;28;19933;-74
2023/04/24 04:41:58;;;;;;;;;;;11.30;99.90;;;;;;4999487;28;19930;-73
2023/04/24 04:44:32;;;;;;;;;;;11.30;99.90;;;;;;5002649;28;20321;-75
2023/04/24 04:47:00;;;;;;;;;;;11.30;99.90;;;;;;5002036;28;19932;-75
2023/04/24 04:49:30;;;;;;;;;;;11.30;99.90;;;;;;4986939;28;20393;-75
2023/04/24 04:51:57;;;;;;;;;;;11.30;99.90;;;;;;4978471;28;20400;-76
2023/04/24 04:54:26;;;;;;;;;;;11.30;99.90;;;;;;4984648;28;20287;-75
2023/04/24 04:56:57;;;;;;;;;;;11.20;99.90;;;;;;4994791;28;20396;-74
2023/04/24 04:59:24;;;;;;;;;;;11.20;99.90;;;;;;4993613;28;19926;-74
2023/04/24 05:01:58;;;;;;;;;;;11.20;99.90;;;;;;4987787;28;19949;-76
2023/04/24 05:04:26;;;;;;;;;;;11.20;99.90;;;;;;4980334;28;19960;-74
2023/04/24 05:06:53;;;;;;;;;;;11.20;99.90;;;;;;4980879;28;19929;-74
2023/04/24 05:09:21;;;;;;;;;;;11.20;99.90;;;;;;4984737;28;19940;-73
2023/04/24 05:11:52;;;;;;;;;;;11.20;99.90;;;;;;4988384;28;20431;-79
2023/04/24 05:14:19;;;;;;;;;;;11.20;99.90;;;;;;4991979;28;19925;-75
2023/04/24 05:16:46;;;;;;;;;;;11.10;99.90;;;;;;4997114;28;19940;-76
2023/04/24 05:19:16;;;;;;;;;;;11.10;99.90;;;;;;4985106;28;20388;-76
2023/04/24 05:21:45;;;;;;;;;;;11.10;99.90;;;;;;5000767;28;20020;-75
2023/04/24 05:24:12;;;;;;;;;;;11.10;99.90;;;;;;5000919;28;19930;-76
2023/04/24 05:26:55;;;;;;;;;;;11.10;99.90;;;;;;4982313;28;19979;-77
2023/04/24 05:29:27;;;;;;;;;;;11.10;99.90;;;;;;4995517;28;20371;-76
2023/04/24 05:31:54;;;;;;;;;;;11.00;99.90;;;;;;4988445;28;20007;-76
2023/04/24 05:34:23;;;;;;;;;;;11.10;99.90;;;;;;4980073;28;19930;-77
2023/04/24 05:36:54;;;;;;;;;;;11.00;99.90;;;;;;5001538;28;19926;-82
2023/04/24 05:39:20;;;;;;;;;;;11.10;99.90;;;;;;4998261;28;19984;-76
2023/04/24 05:41:48;;;;;;;;;;;11.10;99.90;;;;;;4986155;28;20120;-76
2023/04/24 05:44:14;;;;;;;;;;;11.00;99.90;;;;;;4996514;28;19926;-76
2023/04/24 05:46:45;;;;;;;;;;;11.00;99.90;;;;;;4999263;28;20343;-76
2023/04/24 05:49:12;;;;;;;;;;;11.00;99.90;;;;;;4983856;28;20025;-76
2023/04/24 05:51:41;;;;;;;;;;;11.00;99.90;;;;;;4983089;28;19926;-76
2023/04/24 05:54:07;;;;;;;;;;;11.00;99.90;;;;;;4979569;28;19980;-76
2023/04/24 05:56:36;;;;;;;;;;;11.00;99.90;;;;;;5001518;28;20096;-75
2023/04/24 05:59:07;;;;;;;;;;;11.00;99.90;;;;;;4980233;28;19926;-76
2023/04/24 06:01:34;;;;;;;;;;;10.90;99.90;;;;;;5003309;28;20012;-76
2023/04/24 06:04:10;;;;;;;;;;;11.00;99.90;;;;;;4980905;28;19957;-76
2023/04/24 06:06:37;;;;;;;;;;;11.00;99.90;;;;;;4998809;28;19929;-77
2023/04/24 06:09:06;;;;;;;;;;;11.00;99.90;;;;;;4996418;28;19948;-76
2023/04/24 06:11:33;;;;;;;;;;;10.90;99.90;;;;;;5000506;28;20012;-76
2023/04/24 06:14:00;;;;;;;;;;;10.90;99.90;;;;;;5000933;28;20307;-75
2023/04/24 06:16:55;;;;;;;;;;;10.90;99.90;;;;;;4998847;28;20541;-76
2023/04/24 06:19:35;;;;;;;;;;;10.90;99.90;;;;;;4987626;28;20009;-75
2023/04/24 06:22:02;;;;;;;;;;;10.90;99.90;;;;;;5002008;28;19990;-75
2023/04/24 06:24:30;;;;;;;;;;;10.90;99.90;;;;;;4998309;28;19937;-76
2023/04/24 06:26:59;;;;;;;;;;;10.90;99.90;;;;;;4995879;28;19925;-76
2023/04/24 06:29:26;;;;;;;;;;;10.80;99.90;;;;;;4999116;28;19926;-77
2023/04/24 06:31:53;;;;;;;;;;;10.90;99.90;;;;;;4998579;28;19930;-76
2023/04/24 06:34:20;;;;;;;;;;;10.80;99.90;;;;;;4998152;28;20293;-76
2023/04/24 06:36:47;;;;;;;;;;;10.80;99.90;;;;;;4999594;28;19972;-76
2023/04/24 06:39:14;;;;;;;;;;;10.80;99.90;;;;;;4996850;28;19926;-76
2023/04/24 06:41:42;;;;;;;;;;;10.80;99.90;;;;;;5006823;28;19980;-76
2023/04/24 06:44:18;;;;;;;;;;;10.80;99.90;;;;;;4983273;28;19933;-75
2023/04/24 06:46:45;;;;;;;;;;;10.70;99.90;;;;;;5005184;28;20624;-76
2023/04/24 06:49:15;;;;;;;;;;;;;;;;;;5004318;28;19965;-76
2023/04/24 06:51:42;;;;;;;;;;;10.70;99.90;;;;;;4983997;28;19933;-78
2023/04/24 06:54:09;;;;;;;;;;;10.70;99.90;;;;;;4997049;28;19926;-77
2023/04/24 06:56:39;;;;;;;;;;;10.70;99.90;;;;;;4996756;28;20015;-77
2023/04/24 06:59:07;;;;;;;;;;;10.70;99.90;;;;;;5000525;28;19968;-77
2023/04/24 07:01:34;;;;;;;;;;;10.70;99.90;;;;;;4997122;28;20016;-77
2023/04/24 07:04:01;;;;;;;;;;;10.70;99.90;;;;;;4978245;28;20008;-77
2023/04/24 07:06:30;;;;;;;;;;;10.70;99.90;;;;;;4995558;28;19925;-77
2023/04/24 07:08:57;;;;;;;;;;;10.70;99.90;;;;;;5003166;28;19925;-77
2023/04/24 07:11:24;;;;;;;;;;;10.70;99.90;;;;;;5003076;28;20553;-77
2023/04/24 07:13:51;;;;;;;;;;;10.70;99.90;;;;;;5003524;28;19925;-76
2023/04/24 07:16:19;;;;;;;;;;;10.70;99.90;;;;;;5000996;28;19925;-77
2023/04/24 07:18:46;;;;;;;;;;;10.70;99.90;;;;;;5004085;28;20374;-75
2023/04/24 07:21:13;;;;;;;;;;;10.60;99.90;;;;;;5004670;28;20581;-76
2023/04/24 07:23:41;;;;;;;;;;;10.60;99.90;;;;;;4980132;28;19926;-77
2023/04/24 07:26:07;;;;;;;;;;;10.60;99.90;;;;;;5003151;28;19929;-77
2023/04/24 07:28:34;;;;;;;;;;;10.60;99.90;;;;;;4983024;28;19952;-77
2023/04/24 07:31:01;;;;;;;;;;;10.60;99.90;;;;;;5007997;28;20426;-77
2023/04/24 07:33:29;;;;;;;;;;;10.60;99.90;;;;;;4984362;28;20019;-77
2023/04/24 07:35:56;;;;;;;;;;;10.60;99.90;;;;;;4997109;28;19995;-78
2023/04/24 07:38:25;;;;;;;;;;;10.60;99.90;;;;;;5004300;28;19961;-77
2023/04/24 07:40:52;;;;;;;;;;;10.60;99.90;;;;;;5001570;28;19925;-77
2023/04/24 07:43:21;;;;;;;;;;;10.60;99.90;;;;;;5005648;28;19953;-77
2023/04/24 07:45:47;;;;;;;;;;;10.60;99.90;;;;;;5000390;28;19969;-78
2023/04/24 07:48:16;;;;;;;;;;;10.60;99.90;;;;;;4999432;28;19953;-77
2023/04/24 07:50:44;;;;;;;;;;;10.60;99.90;;;;;;5002129;28;19952;-77
2023/04/24 07:53:11;;;;;;;;;;;10.50;99.90;;;;;;5008144;28;20016;-77
2023/04/24 07:55:40;;;;;;;;;;;10.60;99.90;;;;;;4998635;28;19965;-78
2023/04/24 07:58:06;;;;;;;;;;;10.50;99.90;;;;;;4986665;28;19964;-77
2023/04/24 08:00:34;;;;;;;;;;;10.50;99.90;;;;;;5001370;28;20487;-78
2023/04/24 08:03:01;;;;;;;;;;;10.50;99.90;;;;;;5001269;28;19926;-78
2023/04/24 08:05:28;;;;;;;;;;;10.50;99.90;;;;;;4980028;28;20060;-77
2023/04/24 08:07:56;;;;;;;;;;;10.50;99.90;;;;;;5005410;28;19948;-77
2023/04/24 08:10:23;;;;;;;;;;;10.50;99.90;;;;;;5003292;28;19930;-76
2023/04/24 08:12:50;;;;;;;;;;;10.50;99.90;;;;;;5005126;28;20411;-77
2023/04/24 08:15:17;;;;;;;;;;;10.50;99.90;;;;;;5004203;28;19925;-78
2023/04/24 08:17:44;;;;;;;;;;;10.50;99.90;;;;;;5003790;28;19979;-77
2023/04/24 08:20:13;;;;;;;;;;;10.50;99.90;;;;;;5000526;28;19925;-77
2023/04/24 08:22:40;;;;;;;;;;;10.50;99.90;;;;;;5002537;28;20511;-77
2023/04/24 08:25:09;;;;;;;;;;;10.50;99.90;;;;;;5001079;28;19930;-77
2023/04/24 08:27:36;;;;;;;;;;;10.50;99.90;;;;;;4996613;28;20386;-77
2023/04/24 08:30:03;;;;;;;;;;;10.50;99.90;;;;;;5003335;28;19937;-77
2023/04/24 08:32:30;;;;;;;;;;;10.50;99.90;;;;;;4996391;28;19941;-77
2023/04/24 08:34:57;;;;;;;;;;;10.50;99.90;;;;;;5007717;28;19933;-78
2023/04/24 08:37:25;;;;;;;;;;;10.40;99.90;;;;;;5005984;28;20012;-76
2023/04/24 08:39:51;;;;;;;;;;;10.50;99.90;;;;;;4998867;28;19952;-78
2023/04/24 08:42:20;;;;;;;;;;;10.50;99.90;;;;;;5005007;28;20236;-78
2023/04/24 08:44:49;;;;;;;;;;;10.50;99.90;;;;;;5003905;28;19933;-77
2023/04/24 08:47:16;;;;;;;;;;;10.50;99.90;;;;;;4999218;28;19995;-79
2023/04/24 08:49:43;;;;;;;;;;;10.50;99.90;;;;;;5006260;28;19929;-78
2023/04/24 08:52:12;;;;;;;;;;;10.40;99.90;;;;;;5007220;28;19926;-76
2023/04/24 08:54:40;;;;;;;;;;;10.40;99.90;;;;;;4999813;28;20348;-75
2023/04/24 08:57:09;;;;;;;;;;;10.40;99.90;;;;;;5000448;28;19925;-76
2023/04/24 08:59:37;;;;;;;;;;;10.40;99.90;;;;;;5003625;28;20048;-76
2023/04/24 09:02:04;;;;;;;;;;;10.40;99.90;;;;;;5001405;28;20308;-76
2023/04/24 09:04:31;;;;;;;;;;;10.40;99.90;;;;;;4999347;28;19937;-75
2023/04/24 09:06:58;;;;;;;;;;;10.40;99.90;;;;;;4999007;28;19926;-76
2023/04/24 09:09:26;;;;;;;;;;;10.30;99.90;;;;;;4987483;28;20020;-76
2023/04/24 09:11:55;;;;;;;;;;;10.30;99.90;;;;;;5000620;28;20388;-75
2023/04/24 09:14:23;;;;;;;;;;;10.30;99.90;;;;;;4989337;28;19956;-75
2023/04/24 09:16:51;;;;;;;;;;;10.40;99.90;;;;;;4999620;28;19965;-76
2023/04/24 09:19:18;;;;;;;;;;;10.30;99.90;;;;;;4984492;28;19969;-76
2023/04/24 09:21:46;;;;;;;;;;;10.30;99.90;;;;;;4998773;28;20450;-76
2023/04/24 09:24:17;;;;;;;;;;;10.30;99.90;;;;;;5003464;28;19929;-77
2023/04/24 09:26:45;;;;;;;;;;;10.30;99.90;;;;;;5006098;28;19929;-76
2023/04/24 09:29:15;;;;;;;;;;;10.30;99.90;;;;;;5001218;28;20401;-76
2023/04/24 09:31:42;;;;;;;;;;;10.30;99.90;;;;;;4995537;28;19926;-76
2023/04/24 09:34:10;;;;;;;;;;;10.30;99.90;;;;;;5002654;28;19929;-78
2023/04/24 09:36:37;;;;;;;;;;;10.30;99.90;;;;;;5002322;28;20639;-78
2023/04/24 09:39:05;;;;;;;;;;;10.30;99.90;;;;;;4997170;28;19974;-77
2023/04/24 09:41:33;;;;;;;;;;;10.30;99.90;;;;;;5004077;28;19933;-78
2023/04/24 09:44:11;;;;;;;;;;;10.30;99.90;;;;;;5001383;28;19925;-75
2023/04/24 09:46:38;;;;;;;;;;;10.30;99.90;;;;;;4992972;28;19976;-77
2023/04/24 09:49:11;;;;;;;;;;;10.30;99.90;;;;;;5000609;28;19941;-76
2023/04/24 09:51:38;;;;;;;;;;;10.30;99.90;;;;;;4999787;28;19933;-77
2023/04/24 09:54:06;;;;;;;;;;;10.40;99.90;;;;;;5000211;28;19968;-78
2023/04/24 09:56:34;;;;;;;;;;;10.40;99.90;;;;;;4998835;28;20746;-77
2023/04/24 09:59:07;;;;;;;;;;;10.30;99.90;;;;;;5002649;28;19925;-74
2023/04/24 10:01:34;;;;;;;;;;;10.40;99.90;;;;;;4998404;28;19980;-77
2023/04/24 10:04:01;;;;;;;;;;;10.40;99.90;;;;;;5000555;28;20388;-77
2023/04/24 10:06:33;;;;;;;;;;;10.40;99.90;;;;;;4998485;28;20863;-77
2023/04/24 10:09:01;;;;;;;;;;;10.40;99.90;;;;;;5003299;28;20350;-77
2023/04/24 10:11:27;;;;;;;;;;;10.40;99.90;;;;;;5003497;28;19948;-77
2023/04/24 10:13:55;;;;;;;;;;;10.40;99.90;;;;;;5000932;28;20455;-77
2023/04/24 10:16:22;;;;;;;;;;;10.40;99.90;;;;;;4987443;28;19930;-76
2023/04/24 10:18:49;;;;;;;;;;;10.40;99.90;;;;;;5003303;28;19929;-77
2023/04/24 10:21:17;;;;;;;;;;;10.40;99.90;;;;;;4997940;28;19925;-76
2023/04/24 10:23:46;;;;;;;;;;;10.40;99.90;;;;;;4993497;28;19926;-76
2023/04/24 10:26:17;;;;;;;;;;;10.40;99.90;;;;;;4992633;28;19925;-76
2023/04/24 10:28:45;;;;;;;;;;;10.40;99.90;;;;;;5000225;28;19980;-76
2023/04/24 10:31:12;;;;;;;;;;;10.40;99.90;;;;;;5001214;28;19926;-76
2023/04/24 10:33:41;;;;;;;;;;;10.40;99.90;;;;;;4998366;28;19926;-76
2023/04/24 10:36:08;;;;;;;;;;;10.40;99.90;;;;;;5003812;28;20411;-77
2023/04/24 10:38:36;;;;;;;;;;;10.40;99.90;;;;;;4990475;28;20358;-76
2023/04/24 10:41:16;;;;;;;;;;;10.40;99.90;;;;;;5002500;28;19957;-77
2023/04/24 10:43:43;;;;;;;;;;;10.40;99.90;;;;;;4986263;28;20384;-78
2023/04/24 10:46:11;;;;;;;;;;;10.40;99.90;;;;;;5005409;28;19929;-78
2023/04/24 10:48:43;;;;;;;;;;;10.40;99.90;;;;;;5003726;28;19948;-77
2023/04/24 10:51:12;;;;;;;;;;;10.40;99.90;;;;;;4999572;28;20604;-77
2023/04/24 10:53:39;;;;;;;;;;;10.40;99.90;;;;;;5004169;28;20016;-77
2023/04/24 10:56:06;;;;;;;;;;;10.40;99.90;;;;;;5000114;28;20447;-77
2023/04/24 10:58:39;;;;;;;;;;;10.40;99.90;;;;;;5005035;28;19925;-77
2023/04/24 11:01:06;;;;;;;;;;;10.40;99.90;;;;;;5003667;28;20041;-77
2023/04/24 11:03:34;;;;;;;;;;;10.40;99.90;;;;;;5005264;28;19929;-78
2023/04/24 11:06:02;;;;;;;;;;;10.40;99.90;;;;;;5000034;28;19929;-75
2023/04/24 11:08:30;;;;;;;;;;;10.40;99.90;;;;;;5001627;28;19925;-77
2023/04/24 11:11:01;;;;;;;;;;;10.40;99.90;;;;;;5003519;28;19930;-78
2023/04/24 11:13:49;;;;;;;;;;;10.40;99.90;;;;;;5007631;28;19926;-77
2023/04/24 11:16:21;;;;;;;;;;;10.40;99.90;;;;;;5001688;28;19925;-77
2023/04/24 11:18:52;;;;;;;;;;;10.40;99.90;;;;;;5004368;28;20407;-78
2023/04/24 11:21:20;;;;;;;;;;;10.40;99.90;;;;;;5004944;28;19936;-78
2023/04/24 11:23:46;;;;;;;;;;;10.40;99.90;;;;;;5006480;28;19934;-77
2023/04/24 11:26:14;;;;;;;;;;;10.50;99.90;;;;;;5002926;28;19931;-77
2023/04/24 11:28:47;;;;;;;;;;;10.50;99.90;;;;;;5006324;28;19929;-78
2023/04/24 11:31:33;;;;;;;;;;;10.50;99.90;;;;;;5001578;28;19932;-78
2023/04/24 11:34:07;;;;;;;;;;;10.50;99.90;;;;;;5001193;28;19929;-76
2023/04/24 11:36:35;;;;;;;;;;;10.50;99.90;;;;;;5004064;28;19925;-77
2023/04/24 11:39:02;;;;;;;;;;;10.50;99.90;;;;;;5004435;28;20399;-77
2023/04/24 11:41:29;;;;;;;;;;;10.50;99.90;;;;;;5007831;28;19972;-77
2023/04/24 11:43:56;;;;;;;;;;;10.40;99.90;;;;;;4984631;28;19929;-77
2023/04/24 11:46:23;;;;;;;;;;;10.50;99.90;;;;;;5005256;28;19929;-77
2023/04/24 11:48:50;;;;;;;;;;;10.50;99.90;;;;;;5007121;28;20392;-76
2023/04/24 11:51:18;;;;;;;;;;;10.40;99.90;;;;;;5004180;28;20035;-78
2023/04/24 11:53:45;;;;;;;;;;;10.50;99.90;;;;;;5001348;28;19972;-77
2023/04/24 11:56:12;;;;;;;;;;;10.50;99.90;;;;;;4998184;28;20654;-76
2023/04/24 11:58:39;;;;;;;;;;;10.50;99.90;;;;;;5006893;28;20040;-78
2023/04/24 12:01:06;;;;;;;;;;;10.60;99.90;;;;;;5001833;28;19956;-76
2023/04/24 12:03:33;;;;;;;;;;;10.60;99.90;;;;;;5004580;28;20390;-77
2023/04/24 12:06:07;;;;;;;;;;;10.60;99.90;;;;;;4985954;28;19934;-77
2023/04/24 12:08:35;;;;;;;;;;;10.60;99.90;;;;;;5003838;28;19948;-78
2023/04/24 12:11:02;;;;;;;;;;;10.60;99.90;;;;;;5001757;28;19932;-77
2023/04/24 12:13:29;;;;;;;;;;;10.60;99.90;;;;;;4999905;28;20354;-77
2023/04/24 12:15:57;;;;;;;;;;;10.70;99.90;;;;;;5003379;28;20373;-76
2023/04/24 12:18:24;;;;;;;;;;;10.60;99.90;;;;;;5003762;28;19926;-75
2023/04/24 12:20:51;;;;;;;;;;;10.60;99.90;;;;;;5007308;28;20407;-76
2023/04/24 12:23:33;;;;;;;;;;;10.60;99.90;;;;;;5007010;28;20021;-76
2023/04/24 12:26:04;;;;;;;;;;;10.60;99.90;;;;;;4998096;28;19925;-77
2023/04/24 12:28:35;;;;;;;;;;;10.60;99.90;;;;;;4999143;28;19930;-75
2023/04/24 12:31:03;;;;;;;;;;;10.60;99.90;;;;;;4998236;28;19944;-75
2023/04/24 12:33:33;;;;;;;;;;;10.60;99.90;;;;;;4984943;28;19999;-75
2023/04/24 12:36:00;;;;;;;;;;;10.60;99.90;;;;;;5006758;28;19929;-76
2023/04/24 12:38:27;;;;;;;;;;;10.60;99.90;;;;;;5005220;28;19925;-76
2023/04/24 12:41:05;;;;;;;;;;;10.60;99.90;;;;;;4996168;28;19988;-78
2023/04/24 12:43:32;;;;;;;;;;;10.60;99.90;;;;;;5001679;28;19932;-78
2023/04/24 12:45:59;;;;;;;;;;;10.60;99.90;;;;;;5002056;28;20384;-75
2023/04/24 12:48:26;;;;;;;;;;;10.60;99.90;;;;;;5004514;28;20028;-75
2023/04/24 12:50:53;;;;;;;;;;;10.60;99.90;;;;;;4991948;28;19934;-76
2023/04/24 12:53:20;;;;;;;;;;;10.60;99.90;;;;;;5003869;28;19932;-75
2023/04/24 12:55:52;;;;;;;;;;;10.60;99.90;;;;;;4995869;28;20378;-76
2023/04/24 12:58:21;;;;;;;;;;;10.60;99.90;;;;;;5000770;28;20548;-75
2023/04/24 13:00:48;;;;;;;;;;;10.60;99.90;;;;;;4996704;28;20024;-76
2023/04/24 13:03:15;;;;;;;;;;;10.60;99.90;;;;;;5001395;28;20356;-76
2023/04/24 13:05:43;;;;;;;;;;;10.60;99.90;;;;;;5005596;28;19929;-76
2023/04/24 13:08:09;;;;;;;;;;;10.60;99.90;;;;;;4995069;28;20339;-76
2023/04/24 13:10:36;;;;;;;;;;;10.60;99.90;;;;;;4998038;28;20109;-75
2023/04/24 13:13:06;;;;;;;;;;;10.60;99.90;;;;;;4987078;28;20285;-76
2023/04/24 13:15:34;;;;;;;;;;;10.60;99.90;;;;;;4997189;28;19934;-76
2023/04/24 13:18:01;;;;;;;;;;;10.60;99.90;;;;;;4994793;28;20347;-75
2023/04/24 13:20:28;;;;;;;;;;;10.50;99.90;;;;;;5003932;28;19941;-77
2023/04/24 13:22:55;;;;;;;;;;;10.50;99.90;;;;;;4999652;28;19925;-77
2023/04/24 13:25:23;;;;;;;;;;;10.50;99.90;;;;;;5007221;28;20031;-77
2023/04/24 13:27:50;;;;;;;;;;;10.50;99.90;;;;;;5002401;28;19929;-77
2023/04/24 13:30:17;;;;;;;;;;;10.50;99.90;;;;;;5004323;28;20019;-75
2023/04/24 13:32:45;;;;;;;;;;;10.50;99.90;;;;;;4994497;28;19956;-77
2023/04/24 13:35:12;;;;;;;;;;;10.50;99.90;;;;;;5002186;28;20020;-77
2023/04/24 13:37:39;;;;;;;;;;;10.50;99.90;;;;;;5006232;28;19980;-77
2023/04/24 13:40:06;;;;;;;;;;;10.50;99.90;;;;;;5005029;28;20019;-75
2023/04/24 13:42:33;;;;;;;;;;;10.50;99.90;;;;;;5000577;28;19932;-77
2023/04/24 13:45:00;;;;;;;;;;;10.50;99.90;;;;;;4998459;28;19929;-77
2023/04/24 13:47:27;;;;;;;;;;;10.50;99.90;;;;;;4998044;28;19937;-77
2023/04/24 13:49:58;;;;;;;;;;;10.50;99.90;;;;;;4996961;28;19926;-78
2023/04/24 13:52:25;;;;;;;;;;;10.50;99.90;;;;;;5000075;28;19929;-77
2023/04/24 13:54:52;;;;;;;;;;;10.50;99.90;;;;;;4999378;28;19925;-77
2023/04/24 13:57:18;;;;;;;;;;;10.40;99.90;;;;;;5005668;28;20347;-77
2023/04/24 13:59:46;;;;;;;;;;;10.50;99.90;;;;;;4996435;28;19926;-77
2023/04/24 14:02:12;;;;;;;;;;;10.50;99.90;;;;;;4996541;28;19980;-75
2023/04/24 14:04:39;;;;;;;;;;;10.50;99.90;;;;;;4994349;28;20391;-78
2023/04/24 14:07:08;;;;;;;;;;;10.40;99.90;;;;;;5003248;28;19929;-77
2023/04/24 14:09:35;;;;;;;;;;;10.50;99.90;;;;;;4984191;28;19929;-78
2023/04/24 14:12:03;;;;;;;;;;;10.50;99.90;;;;;;5003933;28;20403;-77
2023/04/24 14:14:30;;;;;;;;;;;10.50;99.90;;;;;;5001031;28;19961;-77
2023/04/24 14:16:58;;;;;;;;;;;10.50;99.90;;;;;;4998014;28;19929;-77
2023/04/24 14:19:25;;;;;;;;;;;10.50;99.90;;;;;;5004794;28;19926;-77
2023/04/24 14:21:51;;;;;;;;;;;10.50;99.90;;;;;;5000627;28;19995;-78
2023/04/24 14:24:19;;;;;;;;;;;10.50;99.90;;;;;;5005805;28;19933;-77
2023/04/24 14:26:46;;;;;;;;;;;10.50;99.90;;;;;;5004896;28;19940;-78